createdAt,value
2023-05-10T00:01:29.874Z,5.57
2023-05-10T00:04:16.852Z,4.93
2023-05-10T00:07:03.748Z,4.90
2023-05-10T00:09:50.831Z,5.33
2023-05-10T00:12:39.724Z,5.07
2023-05-10T00:15:27.771Z,4.90
2023-05-10T00:18:14.514Z,5.00
2023-05-10T00:21:01.714Z,4.87
2023-05-10T00:23:48.365Z,5.07
2023-05-10T00:26:35.270Z,4.63
2023-05-10T00:29:22.209Z,4.93
2023-05-10T00:32:11.305Z,5.07
2023-05-10T00:35:00.668Z,4.37
2023-05-10T00:37:47.416Z,5.00
2023-05-10T00:40:42.927Z,4.97
2023-05-10T00:43:37.406Z,5.30
2023-05-10T00:46:26.661Z,4.70
2023-05-10T00:49:14.840Z,5.77
2023-05-10T00:52:03.121Z,5.10
2023-05-10T00:54:49.904Z,5.90
2023-05-10T00:57:37.941Z,5.27
2023-05-10T01:00:24.784Z,5.27
2023-05-10T01:03:12.573Z,5.00
2023-05-10T01:06:00.916Z,5.47
2023-05-10T01:08:48.840Z,5.20
2023-05-10T01:11:37.388Z,5.33
2023-05-10T01:14:24.191Z,4.97
2023-05-10T01:17:12.468Z,5.60
2023-05-10T01:19:59.342Z,5.03
2023-05-10T01:23:12.910Z,5.57
2023-05-10T01:26:26.330Z,5.40
2023-05-10T01:29:39.937Z,5.73
2023-05-10T01:32:38.012Z,5.30
2023-05-10T01:35:33.906Z,5.43
2023-05-10T01:38:31.763Z,4.80
2023-05-10T01:41:22.241Z,5.07
2023-05-10T01:44:16.957Z,5.30
2023-05-10T01:47:08.278Z,5.37
2023-05-10T01:49:58.650Z,5.33
2023-05-10T01:52:49.752Z,5.43
2023-05-10T01:55:43.214Z,5.60
2023-05-10T01:58:34.921Z,5.30
2023-05-10T02:01:23.640Z,5.13
2023-05-10T02:04:13.595Z,5.20
2023-05-10T02:07:02.104Z,5.23
2023-05-10T02:09:50.272Z,5.73
2023-05-10T02:12:38.791Z,5.17
2023-05-10T02:15:26.814Z,5.20
2023-05-10T02:18:16.553Z,5.30
2023-05-10T02:21:04.114Z,5.60
2023-05-10T02:23:54.573Z,5.83
2023-05-10T02:26:43.009Z,5.30
2023-05-10T02:29:30.543Z,5.03
2023-05-10T02:32:18.824Z,4.83
2023-05-10T02:35:06.948Z,5.43
2023-05-10T02:37:55.293Z,5.53
2023-05-10T02:40:44.549Z,5.37
2023-05-10T02:43:33.192Z,5.67
2023-05-10T02:46:19.762Z,5.00
2023-05-10T02:49:06.825Z,5.10
2023-05-10T02:51:58.771Z,5.23
2023-05-10T02:54:47.455Z,4.80
2023-05-10T02:57:37.608Z,5.30
2023-05-10T03:00:24.328Z,5.73
2023-05-10T03:03:11.130Z,5.30
2023-05-10T03:05:59.045Z,5.23
2023-05-10T03:08:47.147Z,5.30
2023-05-10T03:11:46.425Z,5.07
2023-05-10T03:14:48.959Z,4.77
2023-05-10T03:17:54.871Z,5.50
2023-05-10T03:20:47.224Z,5.27
2023-05-10T03:23:42.767Z,5.40
2023-05-10T03:26:30.708Z,5.17
2023-05-10T03:29:28.245Z,5.60
2023-05-10T03:32:16.486Z,5.00
2023-05-10T03:35:03.372Z,4.50
2023-05-10T03:37:50.256Z,5.20
2023-05-10T03:40:37.273Z,5.60
2023-05-10T03:43:24.041Z,5.23
2023-05-10T03:46:10.866Z,5.80
2023-05-10T03:48:58.870Z,5.40
2023-05-10T03:51:45.736Z,4.83
2023-05-10T03:54:33.289Z,4.53
2023-05-10T03:57:20.165Z,5.00
2023-05-10T04:00:08.008Z,4.57
2023-05-10T04:03:15.363Z,4.80
2023-05-10T04:06:03.926Z,5.00
2023-05-10T04:08:50.364Z,4.30
2023-05-10T04:11:38.050Z,5.03
2023-05-10T04:14:26.079Z,4.20
2023-05-10T04:17:13.114Z,4.70
2023-05-10T04:19:59.785Z,4.87
2023-05-10T04:22:50.931Z,4.27
2023-05-10T04:25:37.751Z,4.80
2023-05-10T04:28:27.166Z,5.00
2023-05-10T04:31:14.047Z,4.27
2023-05-10T04:34:00.779Z,4.07
2023-05-10T04:36:49.859Z,5.30
2023-05-10T04:39:42.717Z,4.17
2023-05-10T04:42:29.488Z,4.10
2023-05-10T04:45:16.762Z,4.37
2023-05-10T04:48:03.745Z,3.83
2023-05-10T04:50:54.853Z,4.63
2023-05-10T04:53:43.033Z,4.10
2023-05-10T05:00:07.398Z,4.30
2023-05-10T05:02:54.050Z,4.10
2023-05-10T05:05:43.275Z,3.20
2023-05-10T05:08:29.931Z,4.20
2023-05-10T05:11:16.955Z,4.57
2023-05-10T05:14:07.375Z,3.10
2023-05-10T05:16:55.760Z,3.80
2023-05-10T05:19:43.066Z,3.70
2023-05-10T05:22:30.065Z,3.27
2023-05-10T05:25:17.234Z,3.30
2023-05-10T05:28:06.686Z,3.67
2023-05-10T05:30:56.633Z,3.20
2023-05-10T05:33:43.159Z,3.60
2023-05-10T05:36:32.795Z,3.17
2023-05-10T05:39:19.682Z,4.00
2023-05-10T05:42:09.609Z,3.70
2023-05-10T05:44:56.379Z,3.50
2023-05-10T05:47:44.520Z,3.30
2023-05-10T05:50:31.424Z,3.60
2023-05-10T05:53:19.108Z,3.10
2023-05-10T05:56:06.543Z,2.77
2023-05-10T05:58:55.498Z,3.33
2023-05-10T06:01:42.125Z,3.50
2023-05-10T06:04:30.439Z,3.43
2023-05-10T06:07:20.077Z,3.50
2023-05-10T06:10:08.320Z,3.60
2023-05-10T06:12:55.433Z,3.20
2023-05-10T06:15:42.298Z,3.00
2023-05-10T06:18:31.424Z,3.50
2023-05-10T06:21:22.140Z,2.60
2023-05-10T06:24:09.116Z,3.67
2023-05-10T06:26:55.840Z,3.13
2023-05-10T06:29:42.725Z,3.07
2023-05-10T06:32:29.554Z,3.03
2023-05-10T06:35:16.933Z,3.00
2023-05-10T06:38:07.993Z,2.97
2023-05-10T06:40:54.915Z,3.13
2023-05-10T06:43:43.112Z,2.60
2023-05-10T06:46:29.839Z,2.67
2023-05-10T06:49:16.984Z,3.00
2023-05-10T06:52:06.062Z,3.10
2023-05-10T06:54:56.832Z,3.00
2023-05-10T06:57:43.518Z,3.00
2023-05-10T07:00:30.329Z,2.70
2023-05-10T07:03:22.108Z,2.80
2023-05-10T07:06:29.485Z,2.50
2023-05-10T07:09:43.980Z,2.60
2023-05-10T07:12:49.768Z,4.37
2023-05-10T07:15:57.478Z,2.63
2023-05-10T07:18:53.555Z,2.67
2023-05-10T07:21:47.037Z,2.60
2023-05-10T07:27:49.882Z,2.70
2023-05-10T07:30:39.826Z,2.40
2023-05-10T07:33:28.003Z,2.30
2023-05-10T07:36:16.178Z,2.90
2023-05-10T07:39:09.243Z,2.50
2023-05-10T07:41:57.061Z,2.67
2023-05-10T07:44:50.987Z,2.63
2023-05-10T07:47:38.567Z,2.80
2023-05-10T07:50:26.278Z,2.90
2023-05-10T07:53:42.280Z,3.17
2023-05-10T07:56:37.552Z,2.77
2023-05-10T07:59:25.104Z,2.70
2023-05-10T08:02:18.609Z,2.73
2023-05-10T08:05:10.787Z,2.87
2023-05-10T08:08:01.048Z,3.10
2023-05-10T08:10:48.214Z,2.60
2023-05-10T08:13:35.241Z,2.67
2023-05-10T08:16:25.320Z,2.40
2023-05-10T08:19:15.829Z,2.60
2023-05-10T08:22:04.764Z,2.30
2023-05-10T08:24:51.854Z,2.60
2023-05-10T08:27:38.694Z,2.60
2023-05-10T08:30:25.551Z,2.80
2023-05-10T08:33:12.612Z,2.47
2023-05-10T08:36:02.828Z,2.40
2023-05-10T08:38:50.282Z,2.80
2023-05-10T08:41:41.118Z,2.90
2023-05-10T08:44:33.575Z,2.73
2023-05-10T08:47:23.356Z,2.40
2023-05-10T08:50:11.092Z,2.67
2023-05-10T08:53:03.195Z,2.63
2023-05-10T08:55:52.383Z,2.40
2023-05-10T08:58:39.338Z,2.47
2023-05-10T09:01:34.989Z,2.50
2023-05-10T09:04:27.378Z,2.80
2023-05-10T09:07:14.392Z,2.60
2023-05-10T09:10:07.711Z,2.60
2023-05-10T09:12:56.909Z,2.60
2023-05-10T09:15:56.860Z,2.43
2023-05-10T09:18:45.621Z,2.47
2023-05-10T09:24:46.197Z,2.93
2023-05-10T09:27:39.565Z,2.60
2023-05-10T09:30:35.032Z,2.33
2023-05-10T09:33:23.846Z,2.53
2023-05-10T09:36:11.526Z,2.50
2023-05-10T09:38:57.962Z,2.33
2023-05-10T09:41:47.227Z,2.60
2023-05-10T09:44:36.695Z,2.63
2023-05-10T09:47:23.571Z,2.73
2023-05-10T09:50:13.627Z,2.70
2023-05-10T09:53:06.007Z,2.70
2023-05-10T09:55:55.925Z,3.13
2023-05-10T09:58:45.335Z,2.83
2023-05-10T10:01:35.733Z,2.13
2023-05-10T10:04:23.570Z,2.30
2023-05-10T10:07:12.853Z,3.17
2023-05-10T10:10:03.227Z,2.40
2023-05-10T10:12:52.364Z,2.90
2023-05-10T10:15:39.280Z,2.63
2023-05-10T10:18:28.320Z,2.40
2023-05-10T10:21:18.028Z,2.67
2023-05-10T10:24:08.618Z,3.07
2023-05-10T10:27:07.770Z,2.50
2023-05-10T10:30:19.471Z,2.83
2023-05-10T10:33:54.239Z,2.40
2023-05-10T10:36:46.992Z,2.20
2023-05-10T10:39:37.898Z,2.60
2023-05-10T10:43:00.411Z,2.73
2023-05-10T10:46:13.102Z,2.40
2023-05-10T10:49:14.742Z,2.53
2023-05-10T10:52:33.224Z,2.70
2023-05-10T10:55:33.039Z,2.13
2023-05-10T10:58:33.300Z,2.50
2023-05-10T11:01:26.151Z,2.60
2023-05-10T11:04:22.917Z,2.37
2023-05-10T11:07:23.889Z,2.50
2023-05-10T11:10:14.271Z,2.70
2023-05-10T11:13:03.405Z,2.73
2023-05-10T11:15:53.783Z,2.40
2023-05-10T11:18:45.349Z,2.67
2023-05-10T11:21:49.688Z,2.17
2023-05-10T11:24:40.694Z,2.70
2023-05-10T11:27:27.412Z,2.57
2023-05-10T11:30:17.735Z,3.67
2023-05-10T11:33:05.005Z,3.20
2023-05-10T11:35:57.460Z,2.73
2023-05-10T11:38:55.701Z,4.80
2023-05-10T11:42:26.269Z,2.50
2023-05-10T11:45:13.378Z,3.63
2023-05-10T11:48:00.783Z,2.60
2023-05-10T11:50:48.311Z,2.60
2023-05-10T11:53:35.840Z,2.30
2023-05-10T11:56:24.616Z,2.70
2023-05-10T11:59:13.599Z,3.10
2023-05-10T12:02:03.078Z,2.33
2023-05-10T12:04:51.123Z,2.60
2023-05-10T12:07:37.940Z,2.37
2023-05-10T12:10:31.189Z,2.53
2023-05-10T12:13:25.409Z,2.70
2023-05-10T12:16:22.047Z,2.40
2023-05-10T12:19:08.963Z,2.10
2023-05-10T12:21:56.108Z,2.70
2023-05-10T12:24:42.943Z,2.87
2023-05-10T12:27:36.702Z,2.47
2023-05-10T12:30:28.859Z,2.23
2023-05-10T12:33:19.612Z,2.57
2023-05-10T12:36:07.053Z,2.10
2023-05-10T12:38:53.760Z,2.53
2023-05-10T12:41:42.893Z,2.67
2023-05-10T12:44:33.706Z,2.23
2023-05-10T12:47:23.690Z,2.50
2023-05-10T12:50:10.831Z,2.57
2023-05-10T12:52:59.720Z,2.47
2023-05-10T12:55:51.476Z,2.23
2023-05-10T12:58:43.833Z,2.50
2023-05-10T13:01:32.956Z,2.70
2023-05-10T13:04:21.566Z,2.60
2023-05-10T13:07:12.644Z,2.30
2023-05-10T13:10:00.345Z,2.30
2023-05-10T13:12:49.396Z,2.13
2023-05-10T13:15:39.089Z,2.63
2023-05-10T13:18:27.752Z,2.20
2023-05-10T13:21:20.270Z,2.40
2023-05-10T13:24:06.832Z,2.57
2023-05-10T13:27:00.987Z,2.23
2023-05-10T13:29:49.693Z,2.00
2023-05-10T13:32:38.120Z,2.40
2023-05-10T13:35:24.758Z,2.50
2023-05-10T13:38:13.053Z,3.03
2023-05-10T13:41:01.972Z,2.50
2023-05-10T13:43:54.494Z,2.30
2023-05-10T13:46:41.062Z,2.33
2023-05-10T13:49:30.801Z,2.57
2023-05-10T13:52:18.601Z,2.40
2023-05-10T13:55:09.894Z,2.70
2023-05-10T13:58:00.315Z,2.33
2023-05-10T14:00:47.111Z,2.60
2023-05-10T14:03:36.663Z,2.70
2023-05-10T14:06:25.994Z,2.43
2023-05-10T14:09:12.498Z,2.60
2023-05-10T14:12:10.760Z,2.60
2023-05-10T14:15:01.587Z,2.40
2023-05-10T14:17:48.379Z,2.27
2023-05-10T14:20:35.176Z,2.57
2023-05-10T14:23:29.914Z,2.47
2023-05-10T14:26:19.561Z,2.40
2023-05-10T14:29:09.268Z,2.63
2023-05-10T14:31:57.639Z,2.27
2023-05-10T14:34:46.607Z,2.30
2023-05-10T14:37:36.480Z,2.50
2023-05-10T14:41:21.765Z,2.40
2023-05-10T14:44:18.592Z,2.67
2023-05-10T14:47:12.055Z,2.60
2023-05-10T14:50:03.075Z,2.40
2023-05-10T14:52:52.336Z,2.43
2023-05-10T14:55:41.364Z,2.30
2023-05-10T14:58:28.065Z,2.90
2023-05-10T15:01:20.166Z,1.90
2023-05-10T15:04:07.510Z,2.50
2023-05-10T15:07:00.178Z,2.20
2023-05-10T15:09:47.586Z,2.50
2023-05-10T15:12:34.285Z,2.13
2023-05-10T15:15:24.316Z,2.70
2023-05-10T15:18:18.645Z,2.20
2023-05-10T15:21:09.907Z,2.63
2023-05-10T15:23:56.546Z,2.37
2023-05-10T15:26:47.240Z,2.70
2023-05-10T15:29:43.488Z,2.47
2023-05-10T15:32:32.275Z,2.07
2023-05-10T15:35:28.530Z,2.20
2023-05-10T15:38:20.230Z,2.37
2023-05-10T15:41:11.735Z,2.40
2023-05-10T15:44:05.721Z,2.13
2023-05-10T15:47:00.173Z,2.10
2023-05-10T15:49:46.955Z,3.37
2023-05-10T15:52:44.721Z,2.40
2023-05-10T15:55:31.571Z,2.40
2023-05-10T15:58:19.905Z,2.50
2023-05-10T16:01:07.103Z,2.40
2023-05-10T16:03:56.152Z,2.37
2023-05-10T16:06:45.736Z,2.40
2023-05-10T16:09:40.957Z,1.93
2023-05-10T16:12:27.579Z,2.40
2023-05-10T16:15:14.574Z,2.60
2023-05-10T16:18:03.894Z,2.13
2023-05-10T16:20:53.171Z,2.30
2023-05-10T16:23:41.072Z,2.63
2023-05-10T16:26:36.914Z,3.43
2023-05-10T16:29:24.606Z,2.30
2023-05-10T16:32:13.693Z,2.47
2023-05-10T16:35:00.751Z,2.47
2023-05-10T16:37:49.961Z,2.53
2023-05-10T16:40:37.713Z,2.60
2023-05-10T16:43:26.264Z,2.50
2023-05-10T16:46:15.715Z,3.07
2023-05-10T16:49:02.371Z,2.37
2023-05-10T16:51:53.464Z,2.77
2023-05-10T16:54:46.288Z,2.60
2023-05-10T16:57:42.597Z,2.67
2023-05-10T17:00:36.537Z,2.40
2023-05-10T17:03:25.392Z,2.37
2023-05-10T17:06:17.486Z,2.70
2023-05-10T17:09:15.139Z,2.80
2023-05-10T17:12:04.930Z,2.77
2023-05-10T17:14:54.876Z,2.40
2023-05-10T17:17:43.016Z,3.00
2023-05-10T17:20:31.898Z,2.43
2023-05-10T17:23:20.424Z,4.50
2023-05-10T17:26:07.681Z,2.77
2023-05-10T17:28:55.545Z,2.40
2023-05-10T17:31:42.548Z,2.70
2023-05-10T17:34:33.555Z,2.43
2023-05-10T17:37:23.066Z,2.53
2023-05-10T17:40:14.153Z,2.63
2023-05-10T17:43:00.764Z,2.53
2023-05-10T17:45:49.086Z,2.67
2023-05-10T17:48:40.367Z,2.30
2023-05-10T17:51:30.580Z,1.97
2023-05-10T17:54:20.024Z,2.23
2023-05-10T17:57:08.779Z,2.57
2023-05-10T17:59:56.027Z,2.57
2023-05-10T18:02:47.246Z,2.37
2023-05-10T18:05:42.199Z,2.20
2023-05-10T18:08:30.927Z,2.37
2023-05-10T18:11:20.450Z,2.70
2023-05-10T18:14:11.091Z,2.80
2023-05-10T18:17:01.460Z,3.10
2023-05-10T18:19:48.630Z,3.10
2023-05-10T18:22:35.576Z,3.30
2023-05-10T18:25:23.963Z,3.30
2023-05-10T18:28:11.597Z,4.07
2023-05-10T18:30:59.147Z,3.90
2023-05-10T18:33:55.716Z,4.00
2023-05-10T18:36:45.781Z,3.70
2023-05-10T18:39:34.923Z,3.73
2023-05-10T18:42:28.257Z,3.90
2023-05-10T18:45:17.840Z,4.60
2023-05-10T18:48:05.114Z,4.20
2023-05-10T18:50:51.925Z,4.17
2023-05-10T18:53:38.776Z,4.20
2023-05-10T18:56:27.993Z,4.10
2023-05-10T18:59:18.511Z,4.37
2023-05-10T19:02:05.677Z,4.80
2023-05-10T19:04:52.515Z,4.60
2023-05-10T19:07:46.901Z,4.23
2023-05-10T19:10:36.764Z,4.30
2023-05-10T19:13:49.340Z,4.60
2023-05-10T19:16:40.419Z,4.77
2023-05-10T19:19:31.003Z,4.17
2023-05-10T19:22:28.303Z,4.57
2023-05-10T19:25:29.422Z,4.07
2023-05-10T19:28:22.769Z,4.47
2023-05-10T19:31:11.783Z,4.10
2023-05-10T19:34:04.951Z,4.60
2023-05-10T19:36:53.700Z,4.10
2023-05-10T19:39:40.621Z,3.90
2023-05-10T19:42:27.610Z,4.30
2023-05-10T19:45:16.647Z,4.27
2023-05-10T19:48:03.776Z,4.20
2023-05-10T19:50:51.980Z,5.07
2023-05-10T19:54:32.020Z,4.37
2023-05-10T19:57:19.736Z,4.00
2023-05-10T20:00:08.111Z,4.57
2023-05-10T20:02:57.523Z,4.57
2023-05-10T20:05:44.307Z,4.40
2023-05-10T20:08:35.011Z,4.13
2023-05-10T20:11:22.088Z,4.03
2023-05-10T20:14:12.948Z,4.30
2023-05-10T20:16:59.534Z,4.50
2023-05-10T20:19:46.492Z,4.10
2023-05-10T20:22:33.310Z,4.30
2023-05-10T20:25:23.853Z,4.37
2023-05-10T20:28:10.972Z,4.83
2023-05-10T20:31:00.686Z,4.80
2023-05-10T20:33:49.545Z,4.27
2023-05-10T20:36:36.105Z,4.30
2023-05-10T20:39:25.698Z,4.90
2023-05-10T20:42:15.884Z,5.00
2023-05-10T20:45:02.466Z,4.60
2023-05-10T20:47:51.574Z,4.73
2023-05-10T20:50:40.329Z,4.83
2023-05-10T20:53:26.828Z,4.87
2023-05-10T20:56:16.174Z,4.77
2023-05-10T20:59:06.581Z,5.07
2023-05-10T21:01:55.657Z,4.63
2023-05-10T21:04:47.204Z,4.97
2023-05-10T21:07:34.152Z,5.07
2023-05-10T21:10:29.200Z,4.93
2023-05-10T21:13:16.237Z,4.90
2023-05-10T21:16:09.184Z,5.70
2023-05-10T21:18:55.681Z,4.93
2023-05-10T21:21:43.878Z,5.60
2023-05-10T21:24:30.809Z,5.30
2023-05-10T21:27:17.591Z,5.00
2023-05-10T21:30:07.139Z,5.10
2023-05-10T21:33:00.798Z,5.37
2023-05-10T21:35:50.185Z,5.30
2023-05-10T21:38:36.744Z,5.80
2023-05-10T21:41:26.312Z,5.60
2023-05-10T21:44:15.090Z,5.20
2023-05-10T21:47:01.908Z,5.40
2023-05-10T21:49:50.625Z,5.20
2023-05-10T21:52:41.986Z,5.17
2023-05-10T21:55:32.067Z,6.17
2023-05-10T22:01:19.461Z,6.10
2023-05-10T22:04:06.331Z,5.33
2023-05-10T22:06:57.406Z,5.33
2023-05-10T22:09:45.256Z,5.50
2023-05-10T22:12:32.252Z,5.40
2023-05-10T22:15:18.960Z,6.53
2023-05-10T22:18:19.452Z,5.93
2023-05-10T22:21:13.633Z,6.17
2023-05-10T22:24:15.194Z,5.87
2023-05-10T22:27:02.962Z,6.43
2023-05-10T22:29:50.014Z,6.47
2023-05-10T22:32:54.212Z,5.90
2023-05-10T22:35:43.417Z,6.90
2023-05-10T22:38:32.260Z,6.73
2023-05-10T22:41:22.778Z,6.90
2023-05-10T22:44:12.028Z,7.23
2023-05-10T22:46:58.665Z,7.13
2023-05-10T22:49:47.972Z,6.47
2023-05-10T22:52:34.770Z,7.67
2023-05-10T22:55:26.514Z,7.30
2023-05-10T22:58:15.468Z,7.10
2023-05-10T23:01:02.306Z,7.23
2023-05-10T23:03:49.159Z,7.27
2023-05-10T23:06:41.879Z,7.10
2023-05-10T23:09:28.550Z,6.83
2023-05-10T23:12:15.259Z,7.03
2023-05-10T23:15:03.804Z,6.90
2023-05-10T23:17:50.906Z,6.60
2023-05-10T23:20:37.512Z,5.90
2023-05-10T23:23:24.291Z,6.53
2023-05-10T23:26:11.405Z,6.07
2023-05-10T23:28:58.083Z,6.70
2023-05-10T23:31:49.253Z,6.47
2023-05-10T23:34:36.074Z,6.37
2023-05-10T23:37:23.057Z,6.93
2023-05-10T23:40:13.237Z,7.03
2023-05-10T23:42:59.670Z,7.50
2023-05-10T23:45:54.970Z,6.47
2023-05-10T23:48:43.065Z,7.00
2023-05-10T23:51:30.811Z,7.13
2023-05-10T23:54:17.844Z,7.07
2023-05-10T23:57:07.177Z,6.97
2023-05-10T23:59:54.183Z,7.87
